VIR5C LGAV-EGKK
Flight info
| Callsign | VIR5C |
|---|---|
| Flight time | 3h 20m |
| Altitude | 36000 |
| Route | KOR UL613 XANIS DCT DIMIS DCT RODON DCT SIPAL DCT OKLAX DCT PEVAL DCT LAMPO DCT GUNGO DCT SAFFA DCT ELMUR DCT RIPUS DCT DITON DCT HOC DCT LUL DCT RLP DCT ROTSI DCT KOTUN DCT NINAL DCT KESAX DCT KUNAV |
| Aircraft | A343/H-SDE2E3FGHIJ4J5M1RWXY/LB1D1 |
Departure
| Time | 2026-05-04 11:45 |
|---|---|
| Airport | Athens Eleftherios Venizelos International Airport (LGAV) |
Arrival
| Time | 2026-05-04 15:05 |
|---|---|
| Airport | London Gatwick Airport (EGKK) |
| Time | Latitude | Longitude | Altitude | Speed | Heading |
|---|---|---|---|---|---|
| 2026-05-04 11:22 | 37.93505 | 23.94760 | 305 ft | 0 kts | 306° |
| 2026-05-04 11:35 | 37.93504 | 23.94761 | 305 ft | 2 kts | 306° |
| 2026-05-04 11:35 | 37.93489 | 23.94787 | 306 ft | 4 kts | 309° |
| 2026-05-04 11:35 | 37.93474 | 23.94810 | 306 ft | 4 kts | 288° |
| 2026-05-04 11:36 | 37.93477 | 23.94838 | 305 ft | 4 kts | 231° |
| 2026-05-04 11:36 | 37.93491 | 23.94856 | 306 ft | 0 kts | 217° |
| 2026-05-04 11:39 | 37.93489 | 23.94854 | 305 ft | 1 kts | 217° |
| 2026-05-04 11:40 | 37.93093 | 23.94611 | 309 ft | 12 kts | 145° |
| 2026-05-04 11:41 | 37.93040 | 23.94679 | 309 ft | 7 kts | 161° |
| 2026-05-04 11:41 | 37.92998 | 23.94663 | 308 ft | 7 kts | 207° |
| 2026-05-04 11:41 | 37.92948 | 23.94616 | 308 ft | 12 kts | 217° |
| 2026-05-04 11:41 | 37.92871 | 23.94543 | 308 ft | 16 kts | 217° |
| 2026-05-04 11:42 | 37.92784 | 23.94460 | 310 ft | 14 kts | 217° |
| 2026-05-04 11:42 | 37.92701 | 23.94381 | 309 ft | 15 kts | 217° |
| 2026-05-04 11:42 | 37.92625 | 23.94309 | 311 ft | 11 kts | 217° |
| 2026-05-04 11:42 | 37.92569 | 23.94287 | 310 ft | 6 kts | 162° |
| 2026-05-04 11:43 | 37.92543 | 23.94314 | 312 ft | 5 kts | 133° |
| 2026-05-04 11:43 | 37.92520 | 23.94353 | 314 ft | 6 kts | 126° |
| 2026-05-04 11:43 | 37.92492 | 23.94400 | 313 ft | 7 kts | 126° |
| 2026-05-04 11:43 | 37.92498 | 23.94463 | 313 ft | 9 kts | 51° |
| 2026-05-04 11:44 | 37.92587 | 23.94549 | 311 ft | 35 kts | 37° |
| 2026-05-04 11:44 | 37.92956 | 23.94899 | 305 ft | 98 kts | 37° |
| 2026-05-04 11:44 | 37.93644 | 23.95553 | 285 ft | 148 kts | 37° |
| 2026-05-04 11:44 | 37.94568 | 23.96413 | 499 ft | 173 kts | 39° |
| 2026-05-04 11:45 | 37.95533 | 23.97338 | 1104 ft | 175 kts | 39° |
| 2026-05-04 11:45 | 37.96474 | 23.98366 | 1778 ft | 183 kts | 38° |
| 2026-05-04 11:45 | 37.97523 | 23.99427 | 2337 ft | 202 kts | 33° |
| 2026-05-04 11:45 | 37.98747 | 24.00542 | 2907 ft | 226 kts | 32° |
| 2026-05-04 11:46 | 38.00041 | 24.01736 | 3877 ft | 233 kts | 32° |
| 2026-05-04 11:46 | 38.01356 | 24.02972 | 4860 ft | 239 kts | 32° |
| 2026-05-04 11:46 | 38.02698 | 24.04248 | 5827 ft | 244 kts | 33° |
| 2026-05-04 11:46 | 38.04048 | 24.05539 | 6554 ft | 249 kts | 33° |
| 2026-05-04 11:47 | 38.05439 | 24.06875 | 6890 ft | 251 kts | 33° |
| 2026-05-04 11:47 | 38.06830 | 24.08214 | 6965 ft | 252 kts | 34° |
| 2026-05-04 11:47 | 38.08174 | 24.09659 | 6950 ft | 256 kts | 43° |
| 2026-05-04 11:47 | 38.09098 | 24.11604 | 6956 ft | 263 kts | 69° |
| 2026-05-04 11:48 | 38.09245 | 24.13920 | 6953 ft | 268 kts | 97° |
| 2026-05-04 11:48 | 38.08521 | 24.16102 | 6956 ft | 272 kts | 126° |
| 2026-05-04 11:48 | 38.07079 | 24.17623 | 6953 ft | 272 kts | 156° |
| 2026-05-04 11:48 | 38.05249 | 24.18108 | 7227 ft | 271 kts | 185° |
| 2026-05-04 11:49 | 38.03468 | 24.17496 | 7924 ft | 271 kts | 212° |
| 2026-05-04 11:49 | 38.02080 | 24.15948 | 8900 ft | 266 kts | 239° |
| 2026-05-04 11:49 | 38.01181 | 24.13893 | 9805 ft | 269 kts | 249° |
| 2026-05-04 11:49 | 38.00523 | 24.11614 | 10342 ft | 284 kts | 262° |
| 2026-05-04 11:50 | 38.00322 | 24.09049 | 10695 ft | 302 kts | 272° |
| 2026-05-04 11:50 | 38.00387 | 24.06305 | 11039 ft | 321 kts | 278° |
| 2026-05-04 11:50 | 38.00615 | 24.03428 | 11519 ft | 334 kts | 280° |
| 2026-05-04 11:50 | 38.00918 | 24.00469 | 12155 ft | 342 kts | 281° |
| 2026-05-04 11:51 | 38.01242 | 23.97453 | 12892 ft | 348 kts | 281° |
| 2026-05-04 11:51 | 38.01561 | 23.94385 | 13648 ft | 354 kts | 281° |
| 2026-05-04 11:51 | 38.01863 | 23.91306 | 14352 ft | 360 kts | 280° |
| 2026-05-04 11:51 | 38.02157 | 23.88131 | 15059 ft | 364 kts | 279° |
| 2026-05-04 11:52 | 38.02445 | 23.84919 | 15756 ft | 369 kts | 279° |
| 2026-05-04 11:52 | 38.02732 | 23.81657 | 16443 ft | 375 kts | 279° |
| 2026-05-04 11:52 | 38.03020 | 23.78356 | 17131 ft | 380 kts | 278° |
| 2026-05-04 11:52 | 38.03310 | 23.75003 | 17820 ft | 385 kts | 277° |
| 2026-05-04 11:53 | 38.03599 | 23.71631 | 18652 ft | 384 kts | 278° |
| 2026-05-04 11:53 | 38.03889 | 23.68256 | 19338 ft | 386 kts | 279° |
| 2026-05-04 11:53 | 38.04182 | 23.64865 | 20004 ft | 388 kts | 279° |
| 2026-05-04 11:53 | 38.04675 | 23.61493 | 20609 ft | 389 kts | 289° |
| 2026-05-04 11:55 | 38.16298 | 23.42640 | 24686 ft | 397 kts | 315° |
| 2026-05-04 11:55 | 38.18135 | 23.40079 | 25603 ft | 385 kts | 315° |
| 2026-05-04 11:56 | 38.19908 | 23.37574 | 26404 ft | 380 kts | 315° |
| 2026-05-04 11:56 | 38.21683 | 23.35059 | 26765 ft | 385 kts | 315° |
| 2026-05-04 11:56 | 38.23478 | 23.32510 | 27145 ft | 389 kts | 314° |
| 2026-05-04 11:56 | 38.25287 | 23.29937 | 27559 ft | 391 kts | 314° |
| 2026-05-04 11:57 | 38.27106 | 23.27345 | 27979 ft | 393 kts | 314° |
| 2026-05-04 11:57 | 38.28932 | 23.24741 | 28391 ft | 396 kts | 314° |
| 2026-05-04 11:57 | 38.30767 | 23.22120 | 28799 ft | 398 kts | 314° |
| 2026-05-04 11:57 | 38.32588 | 23.19519 | 29217 ft | 400 kts | 314° |
| 2026-05-04 11:58 | 38.34442 | 23.16868 | 29585 ft | 402 kts | 314° |
| 2026-05-04 11:58 | 38.36305 | 23.14202 | 29983 ft | 403 kts | 314° |
| 2026-05-04 11:58 | 38.38174 | 23.11526 | 30330 ft | 405 kts | 314° |
| 2026-05-04 11:58 | 38.40053 | 23.08834 | 30641 ft | 406 kts | 314° |
| 2026-05-04 11:59 | 38.41931 | 23.06139 | 30974 ft | 407 kts | 314° |
| 2026-05-04 11:59 | 38.43816 | 23.03433 | 31236 ft | 410 kts | 314° |
| 2026-05-04 11:59 | 38.45715 | 23.00705 | 31495 ft | 412 kts | 314° |
| 2026-05-04 11:59 | 38.47615 | 22.97973 | 31832 ft | 412 kts | 314° |
| 2026-05-04 12:00 | 38.49515 | 22.95238 | 32192 ft | 411 kts | 314° |
| 2026-05-04 12:00 | 38.51405 | 22.92509 | 32569 ft | 410 kts | 314° |
| 2026-05-04 12:00 | 38.53266 | 22.89824 | 32949 ft | 409 kts | 314° |
| 2026-05-04 12:00 | 38.55150 | 22.87104 | 33286 ft | 408 kts | 314° |
| 2026-05-04 12:01 | 38.57028 | 22.84393 | 33646 ft | 408 kts | 314° |
| 2026-05-04 12:01 | 38.58905 | 22.81681 | 33988 ft | 407 kts | 314° |
| 2026-05-04 12:02 | 38.70179 | 22.65340 | 35351 ft | 410 kts | 314° |
| 2026-05-04 12:03 | 38.72040 | 22.62633 | 35590 ft | 411 kts | 314° |
| 2026-05-04 12:03 | 38.73927 | 22.59885 | 35828 ft | 412 kts | 314° |
| 2026-05-04 12:03 | 38.75823 | 22.57123 | 36028 ft | 413 kts | 314° |
| 2026-05-04 12:03 | 38.77724 | 22.54352 | 36135 ft | 415 kts | 314° |
| 2026-05-04 12:04 | 38.81514 | 22.48818 | 36138 ft | 411 kts | 314° |
| 2026-05-04 12:04 | 38.85278 | 22.43312 | 36135 ft | 410 kts | 314° |
| 2026-05-04 12:05 | 38.89033 | 22.37810 | 36139 ft | 409 kts | 314° |
| 2026-05-04 12:05 | 38.92757 | 22.32346 | 36140 ft | 409 kts | 314° |
| 2026-05-04 12:06 | 38.96511 | 22.26829 | 36141 ft | 411 kts | 314° |
| 2026-05-04 12:06 | 39.00281 | 22.21276 | 36142 ft | 413 kts | 314° |
| 2026-05-04 12:07 | 39.04055 | 22.15708 | 36139 ft | 413 kts | 314° |
| 2026-05-04 12:07 | 39.07820 | 22.10142 | 36139 ft | 412 kts | 314° |
| 2026-05-04 12:08 | 39.11547 | 22.04624 | 36134 ft | 411 kts | 314° |
| 2026-05-04 12:08 | 39.15296 | 21.99065 | 36133 ft | 411 kts | 314° |
| 2026-05-04 12:09 | 39.19043 | 21.93497 | 36133 ft | 411 kts | 314° |
| 2026-05-04 12:09 | 39.22781 | 21.87933 | 36125 ft | 410 kts | 314° |
| 2026-05-04 12:10 | 39.26517 | 21.82361 | 36127 ft | 411 kts | 314° |
| 2026-05-04 12:10 | 39.30236 | 21.76808 | 36110 ft | 412 kts | 314° |
| 2026-05-04 12:11 | 39.33982 | 21.71203 | 36122 ft | 412 kts | 314° |
| 2026-05-04 12:11 | 39.37729 | 21.65586 | 36122 ft | 412 kts | 313° |
| 2026-05-04 12:12 | 39.41471 | 21.59966 | 36121 ft | 412 kts | 313° |
| 2026-05-04 12:12 | 39.45211 | 21.54340 | 36119 ft | 412 kts | 313° |
| 2026-05-04 12:14 | 39.60130 | 21.31793 | 36117 ft | 413 kts | 313° |
| 2026-05-04 12:15 | 39.63865 | 21.26122 | 36117 ft | 413 kts | 313° |
| 2026-05-04 12:15 | 39.67600 | 21.20440 | 36117 ft | 414 kts | 313° |
| 2026-05-04 12:16 | 39.71307 | 21.14790 | 36124 ft | 414 kts | 313° |
| 2026-05-04 12:16 | 39.75033 | 21.09106 | 36119 ft | 413 kts | 313° |
| 2026-05-04 12:17 | 39.78752 | 21.03417 | 36122 ft | 413 kts | 313° |
| 2026-05-04 12:17 | 39.82469 | 20.97724 | 36121 ft | 413 kts | 313° |
| 2026-05-04 12:18 | 39.86161 | 20.92057 | 36120 ft | 414 kts | 313° |
| 2026-05-04 12:18 | 39.89890 | 20.86325 | 36115 ft | 415 kts | 313° |
| 2026-05-04 12:19 | 39.93620 | 20.80577 | 36088 ft | 416 kts | 313° |
| 2026-05-04 12:19 | 39.97354 | 20.74814 | 36107 ft | 416 kts | 313° |
| 2026-05-04 12:20 | 40.01063 | 20.69080 | 36096 ft | 416 kts | 313° |
| 2026-05-04 12:20 | 40.04790 | 20.63307 | 36091 ft | 416 kts | 313° |
| 2026-05-04 12:21 | 40.08816 | 20.57937 | 36089 ft | 413 kts | 321° |
| 2026-05-04 12:21 | 40.13232 | 20.53147 | 36091 ft | 413 kts | 322° |
| 2026-05-04 12:22 | 40.17714 | 20.48443 | 36086 ft | 413 kts | 323° |
| 2026-05-04 12:22 | 40.22172 | 20.43773 | 36086 ft | 413 kts | 322° |
| 2026-05-04 12:23 | 40.26637 | 20.39068 | 36090 ft | 412 kts | 322° |
| 2026-05-04 12:23 | 40.31099 | 20.34349 | 36091 ft | 412 kts | 322° |
| 2026-05-04 12:24 | 40.35555 | 20.29624 | 36093 ft | 412 kts | 322° |
| 2026-05-04 12:24 | 40.39983 | 20.24923 | 36091 ft | 413 kts | 322° |
| 2026-05-04 12:25 | 40.44453 | 20.20169 | 36091 ft | 414 kts | 322° |
| 2026-05-04 12:25 | 40.48925 | 20.15403 | 36096 ft | 414 kts | 322° |
| 2026-05-04 12:26 | 40.53394 | 20.10632 | 36091 ft | 413 kts | 322° |
| 2026-05-04 12:26 | 40.57817 | 20.05903 | 36100 ft | 412 kts | 322° |
| 2026-05-04 12:27 | 40.62268 | 20.01135 | 36101 ft | 412 kts | 322° |
| 2026-05-04 12:27 | 40.66717 | 19.96361 | 36101 ft | 413 kts | 322° |
| 2026-05-04 12:28 | 40.71177 | 19.91568 | 36102 ft | 414 kts | 322° |
| 2026-05-04 12:28 | 40.75607 | 19.86797 | 36102 ft | 414 kts | 322° |
| 2026-05-04 12:29 | 40.80065 | 19.81987 | 36106 ft | 414 kts | 322° |
| 2026-05-04 12:29 | 40.84520 | 19.77172 | 36102 ft | 413 kts | 322° |
| 2026-05-04 12:30 | 40.88957 | 19.72368 | 36111 ft | 412 kts | 322° |
| 2026-05-04 12:30 | 40.93362 | 19.67591 | 36111 ft | 413 kts | 322° |
| 2026-05-04 12:31 | 40.97804 | 19.62764 | 36119 ft | 413 kts | 322° |
| 2026-05-04 12:31 | 41.02248 | 19.57927 | 36120 ft | 414 kts | 322° |
| 2026-05-04 12:32 | 41.08910 | 19.50659 | 36123 ft | 413 kts | 322° |
| 2026-05-04 12:33 | 41.13318 | 19.45839 | 36104 ft | 413 kts | 321° |
| 2026-05-04 12:33 | 41.17753 | 19.40981 | 36131 ft | 413 kts | 321° |
| 2026-05-04 12:34 | 41.22182 | 19.36120 | 36135 ft | 413 kts | 321° |
| 2026-05-04 12:34 | 41.26612 | 19.31249 | 36135 ft | 413 kts | 321° |
| 2026-05-04 12:35 | 41.31011 | 19.26405 | 36134 ft | 413 kts | 321° |
| 2026-05-04 12:35 | 41.35439 | 19.21519 | 36116 ft | 413 kts | 321° |
| 2026-05-04 12:36 | 41.39861 | 19.16631 | 36121 ft | 413 kts | 321° |
| 2026-05-04 12:36 | 41.44292 | 19.11724 | 36120 ft | 414 kts | 321° |
| 2026-05-04 12:37 | 41.48674 | 19.06802 | 36128 ft | 415 kts | 320° |
| 2026-05-04 12:37 | 41.53016 | 19.01713 | 36128 ft | 415 kts | 319° |
| 2026-05-04 12:38 | 41.57344 | 18.96607 | 36128 ft | 415 kts | 320° |
| 2026-05-04 12:38 | 41.61685 | 18.91506 | 36127 ft | 415 kts | 320° |
| 2026-05-04 12:39 | 41.66000 | 18.86445 | 36138 ft | 416 kts | 320° |
| 2026-05-04 12:39 | 41.70350 | 18.81338 | 36131 ft | 416 kts | 320° |
| 2026-05-04 12:40 | 41.74699 | 18.76221 | 36117 ft | 417 kts | 319° |
| 2026-05-04 12:40 | 41.79060 | 18.71079 | 36132 ft | 418 kts | 319° |
| 2026-05-04 12:41 | 41.83422 | 18.65926 | 36132 ft | 418 kts | 319° |
| 2026-05-04 12:41 | 41.87786 | 18.60761 | 36132 ft | 418 kts | 319° |
| 2026-05-04 12:42 | 41.92113 | 18.55628 | 36137 ft | 418 kts | 319° |
| 2026-05-04 12:42 | 41.96473 | 18.50449 | 36133 ft | 419 kts | 319° |
| 2026-05-04 12:43 | 42.00836 | 18.45256 | 36131 ft | 419 kts | 319° |
| 2026-05-04 12:43 | 42.05165 | 18.40093 | 36128 ft | 419 kts | 319° |
| 2026-05-04 12:44 | 42.09533 | 18.34873 | 36136 ft | 420 kts | 319° |
| 2026-05-04 12:44 | 42.13902 | 18.29643 | 36135 ft | 420 kts | 319° |
| 2026-05-04 12:45 | 42.18270 | 18.24403 | 36134 ft | 420 kts | 319° |
| 2026-05-04 12:45 | 42.22610 | 18.19187 | 36136 ft | 421 kts | 319° |
| 2026-05-04 12:46 | 42.26977 | 18.13929 | 36143 ft | 421 kts | 319° |
| 2026-05-04 12:46 | 42.31342 | 18.08663 | 36143 ft | 421 kts | 319° |
| 2026-05-04 12:47 | 42.35705 | 18.03389 | 36143 ft | 421 kts | 319° |
| 2026-05-04 12:47 | 42.40036 | 17.98144 | 36149 ft | 421 kts | 319° |
| 2026-05-04 12:48 | 42.44395 | 17.92854 | 36143 ft | 421 kts | 319° |
| 2026-05-04 12:48 | 42.48757 | 17.87550 | 36139 ft | 421 kts | 319° |
| 2026-05-04 12:49 | 42.53119 | 17.82236 | 36138 ft | 421 kts | 319° |
| 2026-05-04 12:49 | 42.57476 | 17.76917 | 36135 ft | 421 kts | 319° |
| 2026-05-04 12:50 | 42.61803 | 17.71626 | 36132 ft | 422 kts | 318° |
| 2026-05-04 12:50 | 42.66166 | 17.66280 | 36136 ft | 423 kts | 318° |
| 2026-05-04 12:51 | 42.70534 | 17.60917 | 36134 ft | 423 kts | 318° |
| 2026-05-04 12:51 | 42.74897 | 17.55548 | 36135 ft | 423 kts | 318° |
| 2026-05-04 12:52 | 42.79235 | 17.50200 | 36132 ft | 423 kts | 318° |
| 2026-05-04 12:52 | 42.83596 | 17.44814 | 36130 ft | 423 kts | 318° |
| 2026-05-04 12:53 | 42.87956 | 17.39418 | 36118 ft | 423 kts | 318° |
| 2026-05-04 12:53 | 42.92323 | 17.34003 | 36127 ft | 425 kts | 318° |
| 2026-05-04 12:54 | 42.96665 | 17.28608 | 36134 ft | 426 kts | 318° |
| 2026-05-04 12:54 | 43.01040 | 17.23161 | 36125 ft | 425 kts | 318° |
| 2026-05-04 12:55 | 43.05412 | 17.17708 | 36124 ft | 425 kts | 318° |
| 2026-05-04 12:55 | 43.09779 | 17.12247 | 36121 ft | 425 kts | 317° |
| 2026-05-04 12:56 | 43.14144 | 17.06778 | 36124 ft | 426 kts | 318° |
| 2026-05-04 12:56 | 43.18342 | 17.01131 | 36122 ft | 427 kts | 314° |
| 2026-05-04 12:57 | 43.22466 | 16.95270 | 36121 ft | 427 kts | 314° |
| 2026-05-04 12:57 | 43.26604 | 16.89419 | 36126 ft | 427 kts | 314° |
| 2026-05-04 12:58 | 43.30764 | 16.83592 | 36124 ft | 427 kts | 314° |
| 2026-05-04 12:58 | 43.34904 | 16.77806 | 36122 ft | 427 kts | 315° |
| 2026-05-04 12:59 | 43.39071 | 16.71973 | 36124 ft | 428 kts | 315° |
| 2026-05-04 12:59 | 43.43239 | 16.66124 | 36122 ft | 429 kts | 314° |
| 2026-05-04 13:00 | 43.47412 | 16.60254 | 36127 ft | 429 kts | 314° |
| 2026-05-04 13:00 | 43.51555 | 16.54412 | 36130 ft | 429 kts | 314° |
| 2026-05-04 13:01 | 43.55726 | 16.48520 | 36137 ft | 429 kts | 314° |
| 2026-05-04 13:01 | 43.59894 | 16.42618 | 36126 ft | 430 kts | 314° |
| 2026-05-04 13:02 | 43.64061 | 16.36706 | 36130 ft | 430 kts | 314° |
| 2026-05-04 13:02 | 43.68203 | 16.30818 | 36125 ft | 431 kts | 314° |
| 2026-05-04 13:03 | 43.72378 | 16.24869 | 36126 ft | 432 kts | 314° |
| 2026-05-04 13:03 | 43.76556 | 16.18905 | 36129 ft | 432 kts | 314° |
| 2026-05-04 13:04 | 43.80732 | 16.12930 | 36134 ft | 432 kts | 313° |
| 2026-05-04 13:04 | 43.84874 | 16.06990 | 36131 ft | 432 kts | 313° |
| 2026-05-04 13:05 | 43.88729 | 16.00617 | 36131 ft | 432 kts | 308° |
| 2026-05-04 13:05 | 43.92366 | 15.93972 | 36130 ft | 434 kts | 306° |
| 2026-05-04 13:06 | 43.95974 | 15.87256 | 36134 ft | 434 kts | 306° |
| 2026-05-04 13:06 | 43.99553 | 15.80581 | 36130 ft | 434 kts | 306° |
| 2026-05-04 13:07 | 44.03162 | 15.73851 | 36127 ft | 434 kts | 306° |
| 2026-05-04 13:07 | 44.06770 | 15.67116 | 36130 ft | 435 kts | 306° |
| 2026-05-04 13:08 | 44.10390 | 15.60343 | 36128 ft | 436 kts | 306° |
| 2026-05-04 13:08 | 44.14006 | 15.53560 | 36130 ft | 436 kts | 306° |
| 2026-05-04 13:09 | 44.17594 | 15.46815 | 36132 ft | 436 kts | 306° |
| 2026-05-04 13:09 | 44.21200 | 15.40021 | 36136 ft | 436 kts | 306° |
| 2026-05-04 13:10 | 44.24815 | 15.33192 | 36131 ft | 438 kts | 306° |
| 2026-05-04 13:10 | 44.28432 | 15.26344 | 36129 ft | 439 kts | 306° |
| 2026-05-04 13:11 | 44.32024 | 15.19527 | 36125 ft | 439 kts | 306° |
| 2026-05-04 13:11 | 44.35636 | 15.12658 | 36126 ft | 439 kts | 306° |
| 2026-05-04 13:12 | 44.39246 | 15.05774 | 36128 ft | 440 kts | 305° |
| 2026-05-04 13:12 | 44.42862 | 14.98863 | 36129 ft | 440 kts | 305° |
| 2026-05-04 13:13 | 44.46449 | 14.91989 | 36126 ft | 440 kts | 305° |
| 2026-05-04 13:13 | 44.50056 | 14.85063 | 36124 ft | 440 kts | 305° |
| 2026-05-04 13:14 | 44.53660 | 14.78124 | 36125 ft | 440 kts | 305° |
| 2026-05-04 13:14 | 44.57261 | 14.71176 | 36122 ft | 440 kts | 305° |
| 2026-05-04 13:15 | 44.60856 | 14.64222 | 36120 ft | 440 kts | 305° |
| 2026-05-04 13:15 | 44.64425 | 14.57302 | 36125 ft | 440 kts | 305° |
| 2026-05-04 13:16 | 44.68007 | 14.50339 | 36120 ft | 440 kts | 304° |
| 2026-05-04 13:16 | 44.71592 | 14.43354 | 36119 ft | 441 kts | 304° |
| 2026-05-04 13:17 | 44.75182 | 14.36342 | 36114 ft | 442 kts | 304° |
| 2026-05-04 13:17 | 44.78743 | 14.29370 | 36113 ft | 442 kts | 304° |
| 2026-05-04 13:18 | 44.82327 | 14.22335 | 36113 ft | 442 kts | 304° |
| 2026-05-04 13:18 | 44.85910 | 14.15287 | 36112 ft | 443 kts | 304° |
| 2026-05-04 13:19 | 44.89500 | 14.08206 | 36111 ft | 444 kts | 304° |
| 2026-05-04 13:19 | 44.93064 | 14.01158 | 36128 ft | 444 kts | 304° |
| 2026-05-04 13:20 | 44.96648 | 13.94056 | 36131 ft | 444 kts | 304° |
| 2026-05-04 13:20 | 45.00225 | 13.86948 | 36102 ft | 444 kts | 304° |
| 2026-05-04 13:21 | 45.03807 | 13.79812 | 36109 ft | 446 kts | 304° |
| 2026-05-04 13:21 | 45.07366 | 13.72704 | 36103 ft | 446 kts | 304° |
| 2026-05-04 13:22 | 45.10948 | 13.65535 | 36098 ft | 446 kts | 304° |
| 2026-05-04 13:22 | 45.14523 | 13.58359 | 36096 ft | 446 kts | 303° |
| 2026-05-04 13:23 | 45.18095 | 13.51172 | 36099 ft | 446 kts | 303° |
| 2026-05-04 13:23 | 45.21669 | 13.43964 | 36095 ft | 447 kts | 303° |
| 2026-05-04 13:24 | 45.25217 | 13.36790 | 36091 ft | 447 kts | 303° |
| 2026-05-04 13:24 | 45.28783 | 13.29562 | 36090 ft | 447 kts | 303° |
| 2026-05-04 13:25 | 45.34200 | 13.18764 | 36082 ft | 448 kts | 305° |
| 2026-05-04 13:25 | 45.37939 | 13.11745 | 36077 ft | 448 kts | 305° |
| 2026-05-04 13:26 | 45.41701 | 13.04673 | 36074 ft | 448 kts | 305° |
| 2026-05-04 13:26 | 45.45438 | 12.97567 | 36073 ft | 448 kts | 305° |
| 2026-05-04 13:27 | 45.49160 | 12.90441 | 36071 ft | 448 kts | 304° |
| 2026-05-04 13:27 | 45.52855 | 12.83345 | 36069 ft | 449 kts | 304° |
| 2026-05-04 13:28 | 45.56575 | 12.76184 | 36070 ft | 449 kts | 304° |
| 2026-05-04 13:28 | 45.60291 | 12.69016 | 36067 ft | 449 kts | 304° |
| 2026-05-04 13:29 | 45.64002 | 12.61838 | 36064 ft | 449 kts | 304° |
| 2026-05-04 13:29 | 45.67709 | 12.54651 | 36078 ft | 449 kts | 304° |
| 2026-05-04 13:30 | 45.71392 | 12.47491 | 36060 ft | 450 kts | 304° |
| 2026-05-04 13:30 | 45.75095 | 12.40275 | 36061 ft | 450 kts | 304° |
| 2026-05-04 13:31 | 45.78797 | 12.33043 | 36043 ft | 450 kts | 304° |
| 2026-05-04 13:31 | 45.82493 | 12.25802 | 36049 ft | 450 kts | 304° |
| 2026-05-04 13:32 | 45.86163 | 12.18596 | 36061 ft | 451 kts | 304° |
| 2026-05-04 13:32 | 45.89858 | 12.11320 | 36062 ft | 451 kts | 303° |
| 2026-05-04 13:33 | 45.93548 | 12.04037 | 36069 ft | 451 kts | 303° |
| 2026-05-04 13:33 | 45.97234 | 11.96742 | 36054 ft | 451 kts | 303° |
| 2026-05-04 13:34 | 46.00890 | 11.89489 | 36077 ft | 451 kts | 303° |
| 2026-05-04 13:34 | 46.04570 | 11.82168 | 36064 ft | 452 kts | 303° |
| 2026-05-04 13:35 | 46.10078 | 11.71174 | 36069 ft | 451 kts | 303° |
| 2026-05-04 13:36 | 46.13741 | 11.63829 | 36066 ft | 451 kts | 303° |
| 2026-05-04 13:36 | 46.17355 | 11.56499 | 36064 ft | 451 kts | 303° |
| 2026-05-04 13:37 | 46.20988 | 11.49113 | 36069 ft | 451 kts | 303° |
| 2026-05-04 13:37 | 46.24620 | 11.41720 | 36060 ft | 451 kts | 303° |
| 2026-05-04 13:38 | 46.28250 | 11.34314 | 36054 ft | 451 kts | 303° |
| 2026-05-04 13:38 | 46.31848 | 11.26961 | 36066 ft | 451 kts | 302° |
| 2026-05-04 13:38 | 46.33659 | 11.23253 | 36210 ft | 451 kts | 302° |
| 2026-05-04 13:39 | 46.35471 | 11.19536 | 36218 ft | 453 kts | 302° |
| 2026-05-04 13:39 | 46.39098 | 11.12079 | 36210 ft | 453 kts | 302° |
| 2026-05-04 13:39 | 46.40908 | 11.08350 | 36069 ft | 452 kts | 302° |
| 2026-05-04 13:40 | 46.42718 | 11.04625 | 36068 ft | 452 kts | 302° |
| 2026-05-04 13:40 | 46.45737 | 10.98432 | 36071 ft | 452 kts | 302° |
| 2026-05-04 13:41 | 46.49956 | 10.89767 | 36069 ft | 453 kts | 302° |
| 2026-05-04 13:41 | 46.53585 | 10.82289 | 36075 ft | 453 kts | 302° |
| 2026-05-04 13:42 | 46.58410 | 10.72314 | 36073 ft | 453 kts | 302° |
| 2026-05-04 13:42 | 46.62030 | 10.64807 | 36073 ft | 453 kts | 302° |
| 2026-05-04 13:43 | 46.65644 | 10.57290 | 36081 ft | 453 kts | 302° |
| 2026-05-04 13:43 | 46.69252 | 10.49765 | 36070 ft | 453 kts | 302° |
| 2026-05-04 13:44 | 46.72799 | 10.42245 | 36078 ft | 452 kts | 298° |
| 2026-05-04 13:44 | 46.75556 | 10.34061 | 36071 ft | 449 kts | 291° |
| 2026-05-04 13:45 | 46.78007 | 10.25682 | 36090 ft | 449 kts | 290° |
| 2026-05-04 13:45 | 46.80396 | 10.17274 | 36099 ft | 448 kts | 290° |
| 2026-05-04 13:46 | 46.82767 | 10.08925 | 36106 ft | 448 kts | 290° |
| 2026-05-04 13:46 | 46.85155 | 10.00520 | 36100 ft | 448 kts | 290° |
| 2026-05-04 13:47 | 46.87544 | 9.92108 | 36078 ft | 448 kts | 290° |
| 2026-05-04 13:47 | 46.89709 | 9.84471 | 36073 ft | 448 kts | 290° |
| 2026-05-04 13:48 | 46.91301 | 9.78833 | 36049 ft | 448 kts | 289° |
| 2026-05-04 13:48 | 46.93672 | 9.70411 | 36048 ft | 447 kts | 289° |
| 2026-05-04 13:49 | 46.96034 | 9.61991 | 36028 ft | 447 kts | 289° |
| 2026-05-04 13:49 | 46.98391 | 9.53561 | 36004 ft | 447 kts | 289° |
| 2026-05-04 13:50 | 47.00742 | 9.45124 | 35993 ft | 447 kts | 289° |
| 2026-05-04 13:50 | 47.03072 | 9.36731 | 35987 ft | 448 kts | 289° |
| 2026-05-04 13:51 | 47.05410 | 9.28278 | 35983 ft | 447 kts | 289° |
| 2026-05-04 13:51 | 47.07739 | 9.19828 | 35986 ft | 447 kts | 289° |
| 2026-05-04 13:52 | 47.11223 | 9.07133 | 35993 ft | 447 kts | 288° |
| 2026-05-04 13:53 | 47.13533 | 8.98692 | 35977 ft | 444 kts | 288° |
| 2026-05-04 13:53 | 47.15810 | 8.90325 | 35984 ft | 444 kts | 288° |
| 2026-05-04 13:54 | 47.19101 | 8.77582 | 35988 ft | 444 kts | 287° |
| 2026-05-04 13:55 | 47.22303 | 8.64806 | 35989 ft | 444 kts | 287° |
| 2026-05-04 13:55 | 47.25516 | 8.52058 | 35985 ft | 445 kts | 287° |
| 2026-05-04 13:56 | 47.27669 | 8.43517 | 35970 ft | 445 kts | 287° |
| 2026-05-04 13:57 | 47.30897 | 8.30696 | 35973 ft | 444 kts | 287° |
| 2026-05-04 13:58 | 47.35138 | 8.13619 | 35967 ft | 446 kts | 286° |
| 2026-05-04 13:58 | 47.38316 | 8.00724 | 35969 ft | 446 kts | 286° |
| 2026-05-04 13:59 | 47.40429 | 7.92125 | 35971 ft | 446 kts | 286° |
| 2026-05-04 14:00 | 47.43572 | 7.79271 | 35978 ft | 446 kts | 286° |
| 2026-05-04 14:00 | 47.46635 | 7.66311 | 35993 ft | 444 kts | 281° |
| 2026-05-04 14:01 | 47.48198 | 7.57504 | 35989 ft | 443 kts | 280° |
| 2026-05-04 14:02 | 47.50410 | 7.44234 | 35996 ft | 443 kts | 279° |
| 2026-05-04 14:02 | 47.51862 | 7.35429 | 35998 ft | 444 kts | 279° |
| 2026-05-04 14:03 | 47.53323 | 7.26562 | 35999 ft | 444 kts | 279° |
| 2026-05-04 14:03 | 47.54780 | 7.17686 | 36009 ft | 444 kts | 279° |
| 2026-05-04 14:04 | 47.56954 | 7.04360 | 36014 ft | 444 kts | 279° |
| 2026-05-04 14:04 | 47.58387 | 6.95522 | 36017 ft | 445 kts | 279° |
| 2026-05-04 14:05 | 47.60540 | 6.82154 | 36020 ft | 445 kts | 279° |
| 2026-05-04 14:06 | 47.61965 | 6.73237 | 36022 ft | 445 kts | 279° |
| 2026-05-04 14:06 | 47.63376 | 6.64358 | 36021 ft | 446 kts | 278° |
| 2026-05-04 14:07 | 47.64792 | 6.55397 | 36019 ft | 447 kts | 278° |
| 2026-05-04 14:07 | 47.66204 | 6.46426 | 36021 ft | 447 kts | 278° |
| 2026-05-04 14:08 | 47.67607 | 6.37453 | 36022 ft | 447 kts | 278° |
| 2026-05-04 14:08 | 47.68995 | 6.28537 | 36033 ft | 447 kts | 278° |
| 2026-05-04 14:09 | 47.71735 | 6.15218 | 36021 ft | 451 kts | 284° |
| 2026-05-04 14:10 | 47.74691 | 6.01943 | 36019 ft | 451 kts | 283° |
| 2026-05-04 14:10 | 47.76568 | 5.93119 | 36017 ft | 450 kts | 282° |
| 2026-05-04 14:11 | 47.78428 | 5.84228 | 36011 ft | 451 kts | 282° |
| 2026-05-04 14:11 | 47.81209 | 5.70848 | 35999 ft | 451 kts | 282° |
| 2026-05-04 14:12 | 47.83060 | 5.61917 | 36010 ft | 452 kts | 282° |
| 2026-05-04 14:13 | 47.85821 | 5.48520 | 36016 ft | 451 kts | 282° |
| 2026-05-04 14:13 | 47.87643 | 5.39632 | 35990 ft | 452 kts | 282° |
| 2026-05-04 14:14 | 47.89497 | 5.30668 | 35984 ft | 454 kts | 284° |
| 2026-05-04 14:14 | 47.92456 | 5.22257 | 35979 ft | 466 kts | 302° |
| 2026-05-04 14:14 | 47.94510 | 5.18494 | 35980 ft | 469 kts | 306° |
| 2026-05-04 14:15 | 48.03259 | 5.04053 | 35972 ft | 472 kts | 308° |
| 2026-05-04 14:16 | 48.09882 | 4.93162 | 35968 ft | 472 kts | 307° |
| 2026-05-04 14:17 | 48.16435 | 4.82256 | 35968 ft | 472 kts | 307° |
| 2026-05-04 14:18 | 48.23013 | 4.71258 | 35967 ft | 472 kts | 307° |
| 2026-05-04 14:19 | 48.31777 | 4.56551 | 35963 ft | 473 kts | 307° |
| 2026-05-04 14:19 | 48.36117 | 4.49225 | 35965 ft | 473 kts | 307° |
| 2026-05-04 14:20 | 48.40484 | 4.41835 | 35962 ft | 473 kts | 307° |
| 2026-05-04 14:20 | 48.44847 | 4.34432 | 35966 ft | 472 kts | 307° |
| 2026-05-04 14:21 | 48.51386 | 4.23303 | 35965 ft | 473 kts | 307° |
| 2026-05-04 14:21 | 48.55717 | 4.15906 | 35969 ft | 473 kts | 307° |
| 2026-05-04 14:22 | 48.60070 | 4.08450 | 35965 ft | 473 kts | 307° |
| 2026-05-04 14:22 | 48.64417 | 4.00984 | 35969 ft | 473 kts | 307° |
| 2026-05-04 14:23 | 48.70897 | 3.89814 | 35967 ft | 473 kts | 307° |
| 2026-05-04 14:24 | 48.75328 | 3.82434 | 35965 ft | 475 kts | 310° |
| 2026-05-04 14:24 | 48.80092 | 3.75469 | 35963 ft | 476 kts | 312° |
| 2026-05-04 14:25 | 48.84892 | 3.68537 | 35961 ft | 476 kts | 311° |
| 2026-05-04 14:25 | 48.91968 | 3.58050 | 35958 ft | 476 kts | 311° |
| 2026-05-04 14:26 | 48.96674 | 3.50977 | 35983 ft | 476 kts | 311° |
| 2026-05-04 14:26 | 49.01375 | 3.43887 | 35966 ft | 476 kts | 311° |
| 2026-05-04 14:27 | 49.06076 | 3.36783 | 35970 ft | 476 kts | 311° |
| 2026-05-04 14:27 | 49.10738 | 3.29723 | 35970 ft | 475 kts | 311° |
| 2026-05-04 14:28 | 49.15430 | 3.22599 | 35951 ft | 475 kts | 311° |
| 2026-05-04 14:28 | 49.20115 | 3.15464 | 35703 ft | 476 kts | 311° |
| 2026-05-04 14:29 | 49.24802 | 3.08307 | 35065 ft | 477 kts | 310° |
| 2026-05-04 14:29 | 49.29468 | 3.01158 | 34459 ft | 479 kts | 310° |
| 2026-05-04 14:30 | 49.31821 | 2.97546 | 34150 ft | 480 kts | 310° |
| 2026-05-04 14:30 | 49.34181 | 2.93918 | 33844 ft | 481 kts | 310° |
| 2026-05-04 14:30 | 49.38902 | 2.86643 | 33117 ft | 482 kts | 310° |
| 2026-05-04 14:31 | 49.41267 | 2.82993 | 32759 ft | 482 kts | 310° |
| 2026-05-04 14:31 | 49.45936 | 2.75778 | 32074 ft | 469 kts | 310° |
| 2026-05-04 14:32 | 49.50462 | 2.68764 | 31410 ft | 461 kts | 311° |
| 2026-05-04 14:32 | 49.52715 | 2.65260 | 31091 ft | 459 kts | 311° |
| 2026-05-04 14:32 | 49.54957 | 2.61768 | 30760 ft | 458 kts | 311° |
| 2026-05-04 14:32 | 49.57185 | 2.58291 | 30447 ft | 455 kts | 311° |
| 2026-05-04 14:33 | 49.59403 | 2.54826 | 30129 ft | 453 kts | 311° |
| 2026-05-04 14:33 | 49.61601 | 2.51372 | 29771 ft | 450 kts | 310° |
| 2026-05-04 14:33 | 49.63688 | 2.47808 | 29404 ft | 446 kts | 307° |
| 2026-05-04 14:33 | 49.65673 | 2.44166 | 29034 ft | 442 kts | 306° |
| 2026-05-04 14:34 | 49.67616 | 2.40503 | 28687 ft | 439 kts | 306° |
| 2026-05-04 14:34 | 49.69519 | 2.36912 | 28321 ft | 437 kts | 306° |
| 2026-05-04 14:34 | 49.71446 | 2.33305 | 27974 ft | 434 kts | 307° |
| 2026-05-04 14:34 | 49.73375 | 2.29727 | 27618 ft | 432 kts | 307° |
| 2026-05-04 14:35 | 49.75298 | 2.26186 | 27263 ft | 429 kts | 307° |
| 2026-05-04 14:35 | 49.77217 | 2.22671 | 26958 ft | 426 kts | 308° |
| 2026-05-04 14:35 | 49.79127 | 2.19174 | 26642 ft | 425 kts | 308° |
| 2026-05-04 14:35 | 49.81032 | 2.15685 | 26342 ft | 423 kts | 308° |
| 2026-05-04 14:36 | 49.82899 | 2.12259 | 26040 ft | 421 kts | 308° |
| 2026-05-04 14:36 | 49.84779 | 2.08804 | 25745 ft | 419 kts | 308° |
| 2026-05-04 14:36 | 49.86652 | 2.05356 | 25439 ft | 417 kts | 308° |
| 2026-05-04 14:36 | 49.88512 | 2.01925 | 25160 ft | 415 kts | 308° |
| 2026-05-04 14:37 | 49.90365 | 1.98503 | 24924 ft | 413 kts | 307° |
| 2026-05-04 14:37 | 49.92207 | 1.95097 | 24682 ft | 411 kts | 307° |
| 2026-05-04 14:37 | 49.94041 | 1.91700 | 24442 ft | 410 kts | 307° |
| 2026-05-04 14:37 | 49.95869 | 1.88313 | 24207 ft | 408 kts | 307° |
| 2026-05-04 14:38 | 49.97683 | 1.84945 | 23970 ft | 406 kts | 307° |
| 2026-05-04 14:38 | 49.99464 | 1.81634 | 23751 ft | 404 kts | 307° |
| 2026-05-04 14:38 | 50.01264 | 1.78284 | 23505 ft | 404 kts | 307° |
| 2026-05-04 14:38 | 50.03062 | 1.74932 | 23224 ft | 403 kts | 307° |
| 2026-05-04 14:39 | 50.04854 | 1.71586 | 22977 ft | 402 kts | 307° |
| 2026-05-04 14:39 | 50.06671 | 1.68294 | 22695 ft | 401 kts | 311° |
| 2026-05-04 14:39 | 50.08698 | 1.65318 | 22418 ft | 400 kts | 316° |
| 2026-05-04 14:40 | 50.12856 | 1.59614 | 21889 ft | 396 kts | 317° |
| 2026-05-04 14:40 | 50.14901 | 1.56829 | 21620 ft | 395 kts | 317° |
| 2026-05-04 14:40 | 50.16964 | 1.54020 | 21352 ft | 393 kts | 317° |
| 2026-05-04 14:40 | 50.19019 | 1.51220 | 21108 ft | 391 kts | 317° |
| 2026-05-04 14:41 | 50.21064 | 1.48434 | 20864 ft | 389 kts | 317° |
| 2026-05-04 14:41 | 50.23094 | 1.45663 | 20606 ft | 387 kts | 317° |
| 2026-05-04 14:41 | 50.27129 | 1.40149 | 19890 ft | 383 kts | 317° |
| 2026-05-04 14:42 | 50.31120 | 1.34681 | 19165 ft | 380 kts | 317° |
| 2026-05-04 14:42 | 50.33070 | 1.32004 | 18815 ft | 377 kts | 318° |
| 2026-05-04 14:42 | 50.35031 | 1.29311 | 18466 ft | 374 kts | 318° |
| 2026-05-04 14:43 | 50.36976 | 1.26634 | 18079 ft | 371 kts | 318° |
| 2026-05-04 14:43 | 50.38905 | 1.23979 | 17679 ft | 368 kts | 318° |
| 2026-05-04 14:43 | 50.40820 | 1.21341 | 17279 ft | 365 kts | 318° |
| 2026-05-04 14:43 | 50.42724 | 1.18713 | 16884 ft | 364 kts | 318° |
| 2026-05-04 14:44 | 50.44619 | 1.16096 | 16493 ft | 362 kts | 317° |
| 2026-05-04 14:44 | 50.46504 | 1.13488 | 16109 ft | 360 kts | 317° |
| 2026-05-04 14:44 | 50.48355 | 1.10925 | 15737 ft | 359 kts | 317° |
| 2026-05-04 14:44 | 50.50225 | 1.08334 | 15361 ft | 357 kts | 317° |
| 2026-05-04 14:45 | 50.52020 | 1.05663 | 14994 ft | 354 kts | 314° |
| 2026-05-04 14:45 | 50.53712 | 1.02868 | 14633 ft | 352 kts | 312° |
| 2026-05-04 14:45 | 50.55379 | 1.00056 | 14258 ft | 351 kts | 312° |
| 2026-05-04 14:45 | 50.57035 | 0.97259 | 13908 ft | 348 kts | 312° |
| 2026-05-04 14:46 | 50.58679 | 0.94480 | 13533 ft | 346 kts | 312° |
| 2026-05-04 14:46 | 50.60312 | 0.91719 | 13138 ft | 344 kts | 312° |
| 2026-05-04 14:46 | 50.61912 | 0.89011 | 12738 ft | 341 kts | 312° |
| 2026-05-04 14:46 | 50.63517 | 0.86295 | 12414 ft | 336 kts | 312° |
| 2026-05-04 14:47 | 50.65091 | 0.83628 | 12094 ft | 329 kts | 312° |
| 2026-05-04 14:47 | 50.66638 | 0.81003 | 11788 ft | 324 kts | 311° |
| 2026-05-04 14:47 | 50.68152 | 0.78417 | 11471 ft | 318 kts | 311° |
| 2026-05-04 14:47 | 50.69546 | 0.75742 | 11195 ft | 313 kts | 307° |
| 2026-05-04 14:48 | 50.70879 | 0.73059 | 10887 ft | 309 kts | 307° |
| 2026-05-04 14:48 | 50.72198 | 0.70418 | 10596 ft | 305 kts | 307° |
| 2026-05-04 14:48 | 50.73489 | 0.67853 | 10294 ft | 300 kts | 308° |
| 2026-05-04 14:48 | 50.74780 | 0.65300 | 10009 ft | 295 kts | 308° |
| 2026-05-04 14:49 | 50.76056 | 0.62785 | 9707 ft | 292 kts | 308° |
| 2026-05-04 14:49 | 50.77316 | 0.60301 | 9374 ft | 288 kts | 308° |
| 2026-05-04 14:49 | 50.78564 | 0.57843 | 9067 ft | 285 kts | 308° |
| 2026-05-04 14:49 | 50.79802 | 0.55403 | 8755 ft | 284 kts | 308° |
| 2026-05-04 14:50 | 50.81035 | 0.52973 | 8453 ft | 283 kts | 308° |
| 2026-05-04 14:50 | 50.82262 | 0.50552 | 8128 ft | 281 kts | 308° |
| 2026-05-04 14:50 | 50.83470 | 0.48177 | 7833 ft | 280 kts | 308° |
| 2026-05-04 14:50 | 50.84685 | 0.45775 | 7535 ft | 279 kts | 308° |
| 2026-05-04 14:51 | 50.85893 | 0.43383 | 7230 ft | 277 kts | 308° |
| 2026-05-04 14:51 | 50.87086 | 0.41019 | 7032 ft | 271 kts | 308° |
| 2026-05-04 14:51 | 50.87856 | 0.39494 | 6988 ft | 263 kts | 308° |
| 2026-05-04 14:51 | 50.88612 | 0.37996 | 6986 ft | 254 kts | 308° |
| 2026-05-04 14:52 | 50.89687 | 0.35862 | 6991 ft | 242 kts | 308° |
| 2026-05-04 14:52 | 50.90732 | 0.33787 | 6994 ft | 240 kts | 308° |
| 2026-05-04 14:52 | 50.91769 | 0.31726 | 6995 ft | 239 kts | 308° |
| 2026-05-04 14:52 | 50.92804 | 0.29669 | 6995 ft | 239 kts | 308° |
| 2026-05-04 14:53 | 50.93842 | 0.27604 | 6998 ft | 243 kts | 308° |
| 2026-05-04 14:53 | 50.94960 | 0.25383 | 6919 ft | 268 kts | 308° |
| 2026-05-04 14:53 | 50.96110 | 0.23070 | 6778 ft | 272 kts | 308° |
| 2026-05-04 14:53 | 50.97271 | 0.20700 | 6624 ft | 272 kts | 308° |
| 2026-05-04 14:54 | 50.98430 | 0.18333 | 6473 ft | 272 kts | 308° |
| 2026-05-04 14:54 | 50.99586 | 0.15975 | 6326 ft | 270 kts | 308° |
| 2026-05-04 14:54 | 51.00737 | 0.13627 | 6172 ft | 269 kts | 308° |
| 2026-05-04 14:54 | 51.01656 | 0.11062 | 6021 ft | 270 kts | 287° |
| 2026-05-04 14:55 | 51.01941 | 0.08123 | 5873 ft | 269 kts | 275° |
| 2026-05-04 14:55 | 51.02058 | 0.05159 | 5720 ft | 269 kts | 274° |
| 2026-05-04 14:55 | 51.02164 | 0.02193 | 5560 ft | 269 kts | 274° |
| 2026-05-04 14:55 | 51.02277 | -0.00764 | 5416 ft | 269 kts | 274° |
| 2026-05-04 14:56 | 51.02396 | -0.03723 | 5269 ft | 268 kts | 274° |
| 2026-05-04 14:56 | 51.02516 | -0.06638 | 5103 ft | 268 kts | 274° |
| 2026-05-04 14:56 | 51.02638 | -0.09591 | 4935 ft | 268 kts | 274° |
| 2026-05-04 14:56 | 51.02761 | -0.12542 | 4754 ft | 267 kts | 274° |
| 2026-05-04 14:57 | 51.02884 | -0.15487 | 4572 ft | 267 kts | 274° |
| 2026-05-04 14:57 | 51.03006 | -0.18426 | 4394 ft | 267 kts | 274° |
| 2026-05-04 14:57 | 51.03127 | -0.21363 | 4217 ft | 266 kts | 274° |
| 2026-05-04 14:57 | 51.03248 | -0.24295 | 4037 ft | 266 kts | 274° |
| 2026-05-04 14:58 | 51.03367 | -0.27219 | 3873 ft | 265 kts | 274° |
| 2026-05-04 14:58 | 51.03485 | -0.30099 | 3678 ft | 265 kts | 274° |
| 2026-05-04 14:58 | 51.03603 | -0.33021 | 3499 ft | 264 kts | 274° |
| 2026-05-04 14:58 | 51.03718 | -0.35887 | 3320 ft | 256 kts | 274° |
| 2026-05-04 14:59 | 51.03833 | -0.38671 | 3138 ft | 249 kts | 274° |
| 2026-05-04 14:59 | 51.03941 | -0.41374 | 2983 ft | 241 kts | 274° |
| 2026-05-04 14:59 | 51.05054 | -0.45916 | 2946 ft | 212 kts | 319° |
| 2026-05-04 15:00 | 51.06305 | -0.47038 | 2950 ft | 207 kts | 345° |
| 2026-05-04 15:00 | 51.07698 | -0.47175 | 2950 ft | 197 kts | 11° |
| 2026-05-04 15:00 | 51.09014 | -0.46629 | 2960 ft | 195 kts | 18° |
| 2026-05-04 15:01 | 51.11115 | -0.44484 | 2971 ft | 184 kts | 57° |
| 2026-05-04 15:01 | 51.11610 | -0.42613 | 2962 ft | 185 kts | 78° |
| 2026-05-04 15:01 | 51.11798 | -0.40601 | 2802 ft | 181 kts | 80° |
| 2026-05-04 15:01 | 51.12093 | -0.38685 | 2550 ft | 176 kts | 75° |
| 2026-05-04 15:02 | 51.12364 | -0.36797 | 2304 ft | 174 kts | 78° |
| 2026-05-04 15:02 | 51.12615 | -0.34928 | 2061 ft | 170 kts | 78° |
| 2026-05-04 15:02 | 51.12860 | -0.33172 | 1844 ft | 155 kts | 77° |
| 2026-05-04 15:02 | 51.13082 | -0.31575 | 1630 ft | 141 kts | 78° |
| 2026-05-04 15:03 | 51.13283 | -0.30122 | 1454 ft | 129 kts | 78° |
| 2026-05-04 15:03 | 51.13472 | -0.28745 | 1293 ft | 127 kts | 78° |
| 2026-05-04 15:03 | 51.13662 | -0.27373 | 1115 ft | 127 kts | 78° |
| 2026-05-04 15:03 | 51.13848 | -0.26020 | 931 ft | 125 kts | 77° |
| 2026-05-04 15:04 | 51.14031 | -0.24691 | 754 ft | 125 kts | 77° |
| 2026-05-04 15:04 | 51.14216 | -0.23347 | 562 ft | 123 kts | 75° |
| 2026-05-04 15:04 | 51.14403 | -0.22022 | 406 ft | 123 kts | 76° |
| 2026-05-04 15:04 | 51.14589 | -0.20693 | 248 ft | 122 kts | 77° |
| 2026-05-04 15:05 | 51.14753 | -0.19485 | 220 ft | 90 kts | 79° |
| 2026-05-04 15:05 | 51.14849 | -0.18783 | 209 ft | 45 kts | 78° |
| 2026-05-04 15:05 | 51.14911 | -0.18330 | 214 ft | 34 kts | 77° |
| 2026-05-04 15:05 | 51.14964 | -0.18017 | 215 ft | 27 kts | 66° |
| 2026-05-04 15:06 | 51.15042 | -0.17825 | 219 ft | 15 kts | 52° |
| 2026-05-04 15:06 | 51.15060 | -0.17788 | 217 ft | 4 kts | 52° |
| 2026-05-04 15:06 | 51.15090 | -0.17747 | 219 ft | 4 kts | 22° |
| 2026-05-04 15:07 | 51.15148 | -0.17762 | 209 ft | 6 kts | 352° |
| 2026-05-04 15:07 | 51.15199 | -0.17771 | 213 ft | 8 kts | 353° |
| 2026-05-04 15:07 | 51.15244 | -0.17763 | 217 ft | 0 kts | 32° |
| 2026-05-04 15:07 | 51.15248 | -0.17764 | 217 ft | 1 kts | 9° |
| 2026-05-04 15:08 | 51.15254 | -0.17757 | 217 ft | 1 kts | 39° |
| 2026-05-04 15:08 | 51.15262 | -0.17731 | 220 ft | 3 kts | 73° |
| 2026-05-04 15:08 | 51.15270 | -0.17673 | 218 ft | 7 kts | 79° |
| 2026-05-04 15:08 | 51.15283 | -0.17578 | 211 ft | 10 kts | 77° |
| 2026-05-04 15:09 | 51.15297 | -0.17457 | 214 ft | 12 kts | 80° |
| 2026-05-04 15:09 | 51.15328 | -0.17374 | 218 ft | 8 kts | 23° |
| 2026-05-04 15:09 | 51.15386 | -0.17381 | 218 ft | 9 kts | 347° |
| 2026-05-04 15:10 | 51.15542 | -0.17436 | 216 ft | 11 kts | 348° |
| 2026-05-04 15:10 | 51.15622 | -0.17464 | 213 ft | 12 kts | 347° |
| 2026-05-04 15:10 | 51.15744 | -0.17524 | 218 ft | 7 kts | 310° |
| 2026-05-04 15:11 | 51.15749 | -0.17587 | 217 ft | 7 kts | 266° |
| 2026-05-04 15:11 | 51.15738 | -0.17677 | 215 ft | 10 kts | 256° |
| 2026-05-04 15:11 | 51.15722 | -0.17795 | 210 ft | 12 kts | 258° |
| 2026-05-04 15:11 | 51.15703 | -0.17929 | 217 ft | 11 kts | 258° |
| 2026-05-04 15:12 | 51.15715 | -0.18023 | 220 ft | 7 kts | 322° |
| 2026-05-04 15:12 | 51.15772 | -0.18053 | 215 ft | 10 kts | 347° |
| 2026-05-04 15:12 | 51.15845 | -0.18079 | 216 ft | 10 kts | 347° |
| 2026-05-04 15:12 | 51.15910 | -0.18101 | 212 ft | 9 kts | 348° |
| 2026-05-04 15:13 | 51.15972 | -0.18123 | 217 ft | 8 kts | 347° |
| 2026-05-04 15:13 | 51.16019 | -0.18136 | 216 ft | 6 kts | 360° |
| 2026-05-04 15:13 | 51.16039 | -0.18109 | 216 ft | 4 kts | 52° |
| 2026-05-04 15:13 | 51.16049 | -0.18060 | 216 ft | 6 kts | 76° |
| 2026-05-04 15:14 | 51.16054 | -0.18028 | 217 ft | 2 kts | 77° |
| 2026-05-04 15:14 | 51.16055 | -0.18018 | 218 ft | 1 kts | 77° |
| 2026-05-04 15:14 | 51.16056 | -0.18015 | 217 ft | 0 kts | 77° |